createdAt,value
2023-02-12T00:03:48.410Z,102081.06
2023-02-12T00:08:53.195Z,102088.19
2023-02-12T00:13:57.457Z,102083.19
2023-02-12T00:19:00.391Z,102071.19
2023-02-12T00:24:03.629Z,102062.16
2023-02-12T00:29:06.662Z,102057.63
2023-02-12T00:34:11.714Z,102042.22
2023-02-12T00:39:16.949Z,102036.28
2023-02-12T00:44:20.076Z,102030.31
2023-02-12T00:49:22.614Z,102010.25
2023-02-12T00:54:25.084Z,102009.41
2023-02-12T00:59:29.082Z,102011.97
2023-02-12T01:04:32.997Z,102020.81
2023-02-12T01:09:35.770Z,102014.22
2023-02-12T01:14:38.360Z,102015.00
2023-02-12T01:19:41.214Z,102007.16
2023-02-12T01:24:44.118Z,102007.19
2023-02-12T01:29:47.034Z,102011.34
2023-02-12T01:34:49.636Z,102000.75
2023-02-12T01:39:52.317Z,101988.66
2023-02-12T01:45:37.222Z,101979.97
2023-02-12T01:50:40.418Z,101980.03
2023-02-12T01:55:43.553Z,101979.72
2023-02-12T02:00:46.948Z,101983.47
2023-02-12T02:06:06.819Z,101990.13
2023-02-12T02:11:28.047Z,101971.94
2023-02-12T02:16:36.831Z,101948.03
2023-02-12T02:22:02.476Z,101952.06
2023-02-12T02:27:51.669Z,101950.06
2023-02-12T02:33:46.649Z,101941.19
2023-02-12T02:39:47.757Z,101934.25
2023-02-12T02:44:56.403Z,101928.78
2023-02-12T02:50:06.796Z,101899.63
2023-02-12T02:55:14.930Z,101908.66
2023-02-12T03:00:32.106Z,101908.53
2023-02-12T03:05:44.499Z,101901.50
2023-02-12T03:10:50.541Z,101893.25
2023-02-12T03:16:02.746Z,101886.44
2023-02-12T03:21:12.856Z,101888.28
2023-02-12T03:26:26.050Z,101873.81
2023-02-12T03:32:00.191Z,101883.38
2023-02-12T03:37:14.705Z,101886.06
2023-02-12T03:42:32.227Z,101870.28
2023-02-12T03:47:48.838Z,101882.94
2023-02-12T03:52:51.931Z,101868.97
2023-02-12T03:58:01.839Z,101866.13
2023-02-12T04:03:07.553Z,101879.03
2023-02-12T04:08:13.048Z,101877.88
2023-02-12T04:13:34.233Z,101879.47
2023-02-12T04:18:42.510Z,101889.63
2023-02-12T04:23:45.024Z,101885.66
2023-02-12T04:29:06.652Z,101882.19
2023-02-12T04:34:12.159Z,101869.38
2023-02-12T04:39:20.415Z,101859.06
2023-02-12T04:44:28.805Z,101864.03
2023-02-12T04:49:32.022Z,101847.56
2023-02-12T04:54:34.670Z,101850.50
2023-02-12T04:59:37.494Z,101847.84
2023-02-12T05:04:40.106Z,101841.75
2023-02-12T05:09:42.992Z,101839.09
2023-02-12T05:14:45.804Z,101824.72
2023-02-12T05:19:48.627Z,101822.16
2023-02-12T05:24:51.428Z,101819.88
2023-02-12T05:29:54.023Z,101805.06
2023-02-12T05:34:56.672Z,101793.75
2023-02-12T05:39:59.371Z,101776.97
2023-02-12T05:45:02.034Z,101759.97
2023-02-12T05:50:06.818Z,101761.25
2023-02-12T05:55:09.620Z,101739.28
2023-02-12T06:00:12.941Z,101739.69
2023-02-12T06:05:17.306Z,101727.44
2023-02-12T06:10:22.470Z,101702.44
2023-02-12T06:15:25.342Z,101704.84
2023-02-12T06:20:29.395Z,101708.75
2023-02-12T06:25:32.146Z,101699.91
2023-02-12T06:30:35.437Z,101696.66
2023-02-12T06:35:38.973Z,101701.88
2023-02-12T06:40:41.964Z,101683.00
2023-02-12T06:45:44.618Z,101692.34
2023-02-12T06:50:47.228Z,101683.38
2023-02-12T06:55:50.939Z,101669.13
2023-02-12T07:00:53.575Z,101692.22
2023-02-12T07:05:56.363Z,101686.78
2023-02-12T07:10:59.313Z,101672.22
2023-02-12T07:16:09.879Z,101672.63
2023-02-12T07:21:14.814Z,101656.50
2023-02-12T07:26:19.267Z,101654.56
2023-02-12T07:31:23.931Z,101647.53
2023-02-12T07:36:30.101Z,101645.09
2023-02-12T07:41:36.219Z,101641.81
2023-02-12T07:46:49.764Z,101618.72
2023-02-12T07:51:52.517Z,101628.47
2023-02-12T07:56:55.504Z,101620.13
2023-02-12T08:01:58.901Z,101622.69
2023-02-12T08:07:01.624Z,101601.22
2023-02-12T08:12:04.464Z,101602.16
2023-02-12T08:17:08.613Z,101600.50
2023-02-12T08:22:11.494Z,101600.97
2023-02-12T08:27:14.183Z,101594.25
2023-02-12T08:32:17.974Z,101577.88
2023-02-12T08:37:20.708Z,101573.41
2023-02-12T08:42:25.913Z,101564.81
2023-02-12T08:47:31.237Z,101561.00
2023-02-12T08:52:36.139Z,101557.69
2023-02-12T08:57:38.819Z,101547.16
2023-02-12T09:02:44.065Z,101518.56
2023-02-12T09:07:46.988Z,101521.53
2023-02-12T09:12:49.648Z,101509.84
2023-02-12T09:17:52.478Z,101508.31
2023-02-12T09:22:55.090Z,101486.13
2023-02-12T09:27:57.826Z,101466.09
2023-02-12T09:33:00.446Z,101465.03
2023-02-12T09:38:04.348Z,101460.16
2023-02-12T09:43:37.434Z,101458.72
2023-02-12T09:48:55.434Z,101440.53
2023-02-12T09:54:05.952Z,101438.00
2023-02-12T09:59:09.879Z,101447.72
2023-02-12T10:04:13.332Z,101426.91
2023-02-12T10:09:26.872Z,101430.41
2023-02-12T10:15:01.943Z,101432.50
2023-02-12T10:20:43.616Z,101433.09
2023-02-12T10:25:54.605Z,101412.50
2023-02-12T10:31:01.105Z,101402.69
2023-02-12T10:36:48.423Z,101401.59
2023-02-12T10:42:08.589Z,101395.13
2023-02-12T10:47:20.291Z,101383.91
2023-02-12T10:52:39.175Z,101374.31
2023-02-12T10:57:41.968Z,101365.88
2023-02-12T11:03:02.516Z,101375.59
2023-02-12T11:08:07.752Z,101357.69
2023-02-12T11:13:28.193Z,101349.31
2023-02-12T11:18:33.343Z,101355.59
2023-02-12T11:23:42.571Z,101347.25
2023-02-12T11:29:02.970Z,101346.44
2023-02-12T11:34:22.211Z,101342.75
2023-02-12T11:39:38.153Z,101350.72
2023-02-12T11:44:43.866Z,101342.75
2023-02-12T11:49:51.437Z,101356.38
2023-02-12T11:54:58.202Z,101334.41
2023-02-12T12:00:03.065Z,101325.09
2023-02-12T12:05:18.763Z,101333.47
2023-02-12T12:10:44.566Z,101338.72
2023-02-12T12:16:09.194Z,101327.22
2023-02-12T12:21:21.342Z,101333.13
2023-02-12T12:26:30.284Z,101322.97
2023-02-12T12:31:43.540Z,101316.22
2023-02-12T12:36:58.357Z,101311.34
2023-02-12T12:42:22.997Z,101305.41
2023-02-12T12:48:13.473Z,101293.63
2023-02-12T12:53:34.249Z,101292.78
2023-02-12T12:59:11.746Z,101283.22
2023-02-12T13:04:28.789Z,101278.81
2023-02-12T13:10:11.654Z,101269.59
2023-02-12T13:15:21.975Z,101254.25
2023-02-12T13:20:36.285Z,101243.81
2023-02-12T13:26:09.780Z,101269.88
2023-02-12T13:31:32.889Z,101233.59
2023-02-12T13:36:38.126Z,101226.19
2023-02-12T13:41:48.327Z,101238.41
2023-02-12T13:47:08.831Z,101231.28
2023-02-12T13:52:36.647Z,101214.81
2023-02-12T13:57:39.579Z,101211.53
2023-02-12T14:02:45.180Z,101206.78
2023-02-12T14:07:58.479Z,101210.41
2023-02-12T14:13:19.834Z,101206.72
2023-02-12T14:18:24.711Z,101201.88
2023-02-12T14:23:32.514Z,101193.75
2023-02-12T14:29:00.856Z,101192.56
2023-02-12T14:34:06.685Z,101190.25
2023-02-12T14:39:22.472Z,101195.66
2023-02-12T14:44:27.643Z,101192.91
2023-02-12T14:49:44.937Z,101191.09
2023-02-12T14:54:57.936Z,101193.59
2023-02-12T15:00:20.924Z,101187.38
2023-02-12T15:05:38.526Z,101181.25
2023-02-12T15:10:49.045Z,101182.22
2023-02-12T15:16:06.674Z,101181.00
2023-02-12T15:21:22.091Z,101179.13
2023-02-12T15:26:27.586Z,101169.03
2023-02-12T15:31:33.076Z,101168.69
2023-02-12T15:36:36.649Z,101171.81
2023-02-12T15:41:40.808Z,101172.94
2023-02-12T15:46:57.406Z,101165.81
2023-02-12T15:52:03.181Z,101160.66
2023-02-12T15:57:19.616Z,101162.38
2023-02-12T16:02:28.605Z,101156.91
2023-02-12T16:07:36.985Z,101138.66
2023-02-12T16:12:41.758Z,101146.38
2023-02-12T16:17:48.480Z,101145.53
2023-02-12T16:22:52.620Z,101138.63
2023-02-12T16:27:58.095Z,101143.88
2023-02-12T16:33:01.753Z,101139.97
2023-02-12T16:38:43.692Z,101122.78
2023-02-12T16:44:00.149Z,101127.94
2023-02-12T16:49:03.773Z,101102.78
2023-02-12T16:54:34.385Z,101097.84
2023-02-12T16:59:43.496Z,101113.69
2023-02-12T17:04:46.200Z,101090.34
2023-02-12T17:09:48.815Z,101095.75
2023-02-12T17:14:51.348Z,101093.97
2023-02-12T17:19:53.898Z,101095.28
2023-02-12T17:24:56.664Z,101075.97
2023-02-12T17:29:59.183Z,101072.97
2023-02-12T17:35:01.716Z,101090.16
2023-02-12T17:40:07.133Z,101073.84
2023-02-12T17:45:09.911Z,101077.47
2023-02-12T17:50:14.752Z,101068.72
2023-02-12T17:55:18.294Z,101077.22
2023-02-12T18:00:22.820Z,101070.06
2023-02-12T18:05:25.499Z,101065.94
2023-02-12T18:10:28.093Z,101058.53
2023-02-12T18:15:30.711Z,101060.09
2023-02-12T18:20:33.527Z,101054.47
2023-02-12T18:25:40.380Z,101064.91
2023-02-12T18:30:44.121Z,101071.09
2023-02-12T18:35:57.819Z,101061.75
2023-02-12T18:41:00.733Z,101070.91
2023-02-12T18:46:14.964Z,101072.56
2023-02-12T18:51:22.435Z,101075.84
2023-02-12T18:56:25.010Z,101071.63
2023-02-12T19:01:28.984Z,101072.34
2023-02-12T19:06:33.832Z,101074.28
2023-02-12T19:11:36.479Z,101071.25
2023-02-12T19:16:39.555Z,101068.88
2023-02-12T19:21:42.715Z,101069.47
2023-02-12T19:26:45.948Z,101066.59
2023-02-12T19:31:48.898Z,101084.00
2023-02-12T19:36:51.705Z,101079.81
2023-02-12T19:41:56.338Z,101080.53
2023-02-12T19:46:59.769Z,101081.94
2023-02-12T19:52:02.356Z,101088.78
2023-02-12T19:57:09.345Z,101091.94
2023-02-12T20:02:12.181Z,101089.78
2023-02-12T20:07:14.937Z,101087.84
2023-02-12T20:12:17.455Z,101082.91
2023-02-12T20:17:20.449Z,101087.47
2023-02-12T20:22:24.680Z,101087.13
2023-02-12T20:27:27.214Z,101093.59
2023-02-12T20:32:29.757Z,101099.97
2023-02-12T20:37:33.402Z,101087.50
2023-02-12T20:42:36.026Z,101110.06
2023-02-12T20:47:38.586Z,101110.78
2023-02-12T20:52:41.820Z,101113.88
2023-02-12T20:57:44.476Z,101117.25
2023-02-12T21:02:46.996Z,101114.72
2023-02-12T21:07:50.702Z,101114.34
2023-02-12T21:12:53.492Z,101111.47
2023-02-12T21:17:56.015Z,101128.13
2023-02-12T21:22:58.718Z,101101.97
2023-02-12T21:28:01.320Z,101118.28
2023-02-12T21:33:04.624Z,101119.63
2023-02-12T21:38:07.203Z,101127.03
2023-02-12T21:43:12.611Z,101108.56
2023-02-12T21:48:15.154Z,101114.81
2023-02-12T21:53:17.689Z,101116.63
2023-02-12T21:58:21.239Z,101115.19
2023-02-12T22:03:23.713Z,101101.16
2023-02-12T22:08:26.294Z,101103.16
2023-02-12T22:13:30.696Z,101112.94
2023-02-12T22:18:33.247Z,101119.69
2023-02-12T22:23:36.365Z,101126.25
2023-02-12T22:28:47.209Z,101127.78
2023-02-12T22:33:51.072Z,101136.13
2023-02-12T22:38:55.138Z,101142.97
2023-02-12T22:44:02.528Z,101151.13
2023-02-12T22:49:05.334Z,101151.63
2023-02-12T22:54:12.536Z,101158.66
2023-02-12T22:59:15.240Z,101149.50
2023-02-12T23:04:18.978Z,101161.59
2023-02-12T23:09:21.565Z,101169.19
2023-02-12T23:14:24.147Z,101163.28
2023-02-12T23:19:26.582Z,101179.22
2023-02-12T23:24:29.167Z,101184.06
2023-02-12T23:29:31.719Z,101178.88
2023-02-12T23:34:34.356Z,101181.56
2023-02-12T23:39:38.099Z,101179.44
2023-02-12T23:44:40.641Z,101168.50
2023-02-12T23:49:43.141Z,101161.44
2023-02-12T23:54:45.717Z,101172.16
2023-02-12T23:59:48.294Z,101166.09
